createdAt,value
2022-10-06T00:01:04.773Z,42.23
2022-10-06T00:03:33.167Z,186.20
2022-10-06T00:06:03.299Z,183.33
2022-10-06T00:08:31.967Z,81.53
2022-10-06T00:11:00.226Z,64.23
2022-10-06T00:13:28.888Z,47.27
2022-10-06T00:15:57.090Z,64.97
2022-10-06T00:18:27.027Z,18.93
2022-10-06T00:20:56.917Z,20.63
2022-10-06T00:23:25.323Z,31.80
2022-10-06T00:25:53.671Z,23.07
2022-10-06T00:28:21.955Z,14.80
2022-10-06T00:30:51.269Z,9.33
2022-10-06T00:33:19.424Z,15.07
2022-10-06T00:35:53.004Z,23.43
2022-10-06T00:38:21.136Z,45.07
2022-10-06T00:40:51.790Z,12.60
2022-10-06T00:43:47.320Z,9.77
2022-10-06T00:46:19.811Z,9.50
2022-10-06T00:48:51.792Z,9.37
2022-10-06T00:51:22.177Z,8.90
2022-10-06T00:53:50.314Z,8.10
2022-10-06T00:56:18.408Z,6.47
2022-10-06T00:58:46.494Z,8.60
2022-10-06T01:01:15.136Z,13.47
2022-10-06T01:03:46.197Z,4.23
2022-10-06T01:06:14.732Z,8.93
2022-10-06T01:08:44.246Z,8.07
2022-10-06T01:11:14.339Z,4.20
2022-10-06T01:13:43.854Z,4.80
2022-10-06T01:16:17.339Z,5.93
2022-10-06T01:18:46.539Z,3.63
2022-10-06T01:21:21.682Z,6.40
2022-10-06T01:23:51.314Z,4.63
2022-10-06T01:26:20.595Z,6.03
2022-10-06T01:28:48.854Z,4.87
2022-10-06T01:31:17.377Z,6.57
2022-10-06T01:33:45.626Z,3.83
2022-10-06T01:36:13.680Z,8.73
2022-10-06T01:38:41.738Z,2.60
2022-10-06T01:41:11.216Z,6.80
2022-10-06T01:43:39.446Z,1.93
2022-10-06T01:46:07.751Z,4.87
2022-10-06T01:48:37.362Z,3.37
2022-10-06T01:51:05.756Z,9.87
2022-10-06T01:53:34.665Z,3.83
2022-10-06T01:56:02.786Z,3.10
2022-10-06T01:58:32.655Z,3.33
2022-10-06T02:01:06.111Z,5.37
2022-10-06T02:03:35.513Z,1.77
2022-10-06T02:06:03.724Z,2.63
2022-10-06T02:08:32.515Z,8.67
2022-10-06T02:11:01.247Z,4.50
2022-10-06T02:13:30.006Z,2.73
2022-10-06T02:15:59.828Z,3.97
2022-10-06T02:18:28.406Z,10.10
2022-10-06T02:20:56.721Z,17.87
2022-10-06T02:23:24.797Z,11.87
2022-10-06T02:25:59.738Z,16.27
2022-10-06T02:28:28.462Z,7.00
2022-10-06T02:31:03.525Z,7.00
2022-10-06T02:33:32.475Z,8.90
2022-10-06T02:36:01.045Z,11.43
2022-10-06T02:38:30.530Z,8.57
2022-10-06T02:40:59.189Z,9.03
2022-10-06T02:43:28.984Z,13.50
2022-10-06T02:45:57.663Z,10.83
2022-10-06T02:48:27.923Z,5.97
2022-10-06T02:50:57.537Z,4.23
2022-10-06T02:53:26.206Z,6.40
2022-10-06T02:56:00.686Z,18.43
2022-10-06T02:58:30.137Z,7.83
2022-10-06T03:01:02.824Z,9.33
2022-10-06T03:03:33.184Z,8.23
2022-10-06T03:06:02.071Z,5.43
2022-10-06T03:08:30.444Z,6.37
2022-10-06T03:11:02.540Z,9.40
2022-10-06T03:13:31.597Z,7.10
2022-10-06T03:15:59.955Z,5.63
2022-10-06T03:18:30.187Z,12.20
2022-10-06T03:21:02.890Z,7.40
2022-10-06T03:23:31.019Z,8.33
2022-10-06T03:25:59.293Z,9.40
2022-10-06T03:28:28.671Z,12.37
2022-10-06T03:31:02.754Z,11.10
2022-10-06T03:33:31.643Z,10.67
2022-10-06T03:36:02.543Z,8.17
2022-10-06T03:38:32.718Z,12.53
2022-10-06T03:41:05.279Z,18.07
2022-10-06T03:43:33.416Z,22.87
2022-10-06T03:46:02.484Z,19.23
2022-10-06T03:48:31.752Z,15.83
2022-10-06T03:51:02.654Z,14.10
2022-10-06T03:53:31.770Z,10.30
2022-10-06T03:56:01.417Z,11.27
2022-10-06T03:58:30.280Z,15.67
2022-10-06T04:01:03.652Z,7.07
2022-10-06T04:03:32.073Z,10.20
2022-10-06T04:06:03.004Z,16.37
2022-10-06T04:08:33.120Z,8.93
2022-10-06T04:11:07.260Z,13.37
2022-10-06T04:13:35.680Z,15.07
2022-10-06T04:16:11.455Z,11.90
2022-10-06T04:18:39.583Z,13.57
2022-10-06T04:21:09.180Z,9.23
2022-10-06T04:23:37.573Z,9.90
2022-10-06T04:26:09.479Z,14.70
2022-10-06T04:28:38.325Z,7.83
2022-10-06T04:31:08.769Z,11.77
2022-10-06T04:33:37.255Z,4.30
2022-10-06T04:36:07.457Z,9.57
2022-10-06T04:38:37.338Z,9.17
2022-10-06T04:41:07.050Z,8.83
2022-10-06T04:43:35.428Z,10.77
2022-10-06T04:46:24.050Z,9.77
2022-10-06T04:48:52.750Z,9.83
2022-10-06T04:51:22.075Z,11.63
2022-10-06T04:53:51.690Z,13.83
2022-10-06T04:56:21.442Z,15.27
2022-10-06T04:58:50.454Z,8.70
2022-10-06T05:01:20.297Z,11.80
2022-10-06T05:03:49.514Z,12.40
2022-10-06T05:06:20.059Z,13.03
2022-10-06T05:08:49.332Z,13.10
2022-10-06T05:11:22.453Z,15.80
2022-10-06T05:13:55.230Z,12.47
2022-10-06T05:16:25.129Z,10.17
2022-10-06T05:18:53.379Z,11.80
2022-10-06T05:21:23.196Z,13.90
2022-10-06T05:23:51.352Z,9.97
2022-10-06T05:26:23.255Z,7.23
2022-10-06T05:28:51.836Z,13.00
2022-10-06T05:31:21.396Z,6.90
2022-10-06T05:33:49.578Z,8.80
2022-10-06T05:36:19.134Z,12.50
2022-10-06T05:38:48.475Z,8.87
2022-10-06T05:41:18.049Z,12.93
2022-10-06T05:43:47.879Z,11.40
2022-10-06T05:46:20.469Z,10.53
2022-10-06T05:48:49.364Z,10.30
2022-10-06T05:51:19.133Z,7.00
2022-10-06T05:53:48.638Z,6.50
2022-10-06T05:56:18.574Z,11.27
2022-10-06T05:58:49.514Z,3.73
2022-10-06T06:01:19.597Z,3.27
2022-10-06T06:03:49.430Z,5.13
2022-10-06T06:06:19.436Z,4.60
2022-10-06T06:08:48.161Z,5.13
2022-10-06T06:11:16.214Z,8.83
2022-10-06T06:13:44.305Z,4.13
2022-10-06T06:16:15.773Z,4.83
2022-10-06T06:18:44.058Z,18.03
2022-10-06T06:21:12.255Z,5.33
2022-10-06T06:23:41.757Z,7.77
2022-10-06T06:26:11.527Z,5.20
2022-10-06T06:28:40.364Z,6.40
2022-10-06T06:31:10.394Z,5.00
2022-10-06T06:33:41.908Z,5.20
2022-10-06T06:36:14.935Z,5.57
2022-10-06T06:38:43.235Z,5.90
2022-10-06T06:41:15.886Z,4.60
2022-10-06T06:43:44.051Z,3.70
2022-10-06T06:46:12.701Z,5.73
2022-10-06T06:48:42.690Z,13.03
2022-10-06T06:51:12.017Z,8.17
2022-10-06T06:53:40.285Z,2.97
2022-10-06T06:56:09.365Z,3.73
2022-10-06T06:58:42.456Z,8.53
2022-10-06T07:01:13.784Z,5.60
2022-10-06T07:03:59.317Z,2.63
2022-10-06T07:06:29.417Z,3.43
2022-10-06T07:08:58.199Z,4.40
2022-10-06T07:11:27.665Z,9.90
2022-10-06T07:13:57.702Z,5.10
2022-10-06T07:16:43.667Z,3.87
2022-10-06T07:19:31.501Z,3.37
2022-10-06T07:22:18.835Z,2.70
2022-10-06T07:25:04.675Z,8.13
2022-10-06T07:27:33.943Z,4.33
2022-10-06T07:30:02.019Z,4.67
2022-10-06T07:32:31.275Z,5.70
2022-10-06T07:35:00.892Z,4.87
2022-10-06T07:37:34.497Z,5.53
2022-10-06T07:40:02.599Z,3.33
2022-10-06T07:42:30.593Z,4.57
2022-10-06T07:45:16.185Z,5.80
2022-10-06T07:47:44.137Z,4.80
2022-10-06T07:50:13.635Z,4.90
2022-10-06T07:52:42.128Z,2.90
2022-10-06T07:55:12.451Z,7.70
2022-10-06T07:57:40.480Z,4.07
2022-10-06T08:00:09.648Z,3.97
2022-10-06T08:02:39.206Z,3.13
2022-10-06T08:05:08.421Z,4.10
2022-10-06T08:07:37.773Z,4.00
2022-10-06T08:10:06.314Z,3.20
2022-10-06T08:12:34.415Z,8.50
2022-10-06T08:15:07.072Z,3.87
2022-10-06T08:17:36.353Z,4.93
2022-10-06T08:20:05.614Z,7.50
2022-10-06T08:22:33.868Z,7.53
2022-10-06T08:25:07.303Z,6.40
2022-10-06T08:27:36.306Z,6.50
2022-10-06T08:30:05.803Z,9.63
2022-10-06T08:32:34.308Z,8.70
2022-10-06T08:35:02.852Z,6.93
2022-10-06T08:37:31.043Z,7.13
2022-10-06T08:39:59.026Z,6.43
2022-10-06T08:42:33.106Z,5.43
2022-10-06T08:45:05.070Z,6.60
2022-10-06T08:47:36.323Z,6.40
2022-10-06T08:50:07.032Z,3.80
2022-10-06T08:52:46.257Z,5.50
2022-10-06T08:55:21.971Z,6.40
2022-10-06T09:00:42.092Z,5.17
2022-10-06T09:03:18.401Z,3.97
2022-10-06T09:05:48.260Z,3.97
2022-10-06T09:08:53.287Z,6.60
2022-10-06T09:11:35.311Z,4.47
2022-10-06T09:14:07.283Z,2.03
2022-10-06T09:16:38.083Z,4.10
2022-10-06T09:19:12.535Z,7.00
2022-10-06T09:21:42.556Z,4.30
2022-10-06T09:24:15.362Z,2.47
2022-10-06T09:26:45.488Z,3.90
2022-10-06T09:29:18.346Z,3.20
2022-10-06T09:31:51.267Z,2.80
2022-10-06T09:34:26.245Z,2.10
2022-10-06T09:37:01.992Z,2.20
2022-10-06T09:39:36.154Z,5.20
2022-10-06T09:42:06.872Z,8.33
2022-10-06T09:44:48.175Z,5.40
2022-10-06T09:47:39.664Z,3.60
2022-10-06T09:50:20.150Z,1.67
2022-10-06T09:53:16.271Z,3.93
2022-10-06T09:55:54.664Z,2.53
2022-10-06T09:58:32.788Z,3.50
2022-10-06T10:01:09.380Z,3.90
2022-10-06T10:04:15.491Z,3.10
2022-10-06T10:06:40.220Z,2.90
2022-10-06T10:09:22.121Z,3.30
2022-10-06T10:12:19.056Z,3.17
2022-10-06T10:14:47.506Z,4.50
2022-10-06T10:17:20.715Z,2.47
2022-10-06T10:19:54.386Z,2.67
2022-10-06T10:22:24.888Z,2.30
2022-10-06T10:25:00.476Z,5.60
2022-10-06T10:27:36.848Z,6.20
2022-10-06T10:30:09.987Z,6.60
2022-10-06T10:32:46.599Z,3.93
2022-10-06T10:35:21.521Z,5.33
2022-10-06T10:37:52.561Z,3.20
2022-10-06T10:40:31.536Z,2.93
2022-10-06T10:43:10.641Z,5.90
2022-10-06T10:45:43.085Z,5.37
2022-10-06T10:48:17.476Z,3.53
2022-10-06T10:50:52.899Z,6.07
2022-10-06T10:53:25.077Z,6.40
2022-10-06T10:55:53.907Z,3.93
2022-10-06T10:58:25.297Z,4.27
2022-10-06T11:00:56.376Z,2.77
2022-10-06T11:03:25.915Z,3.10
2022-10-06T11:06:14.625Z,3.57
2022-10-06T11:08:47.552Z,10.47
2022-10-06T11:11:19.710Z,2.70
2022-10-06T11:13:50.019Z,6.10
2022-10-06T11:16:29.951Z,5.40
2022-10-06T11:19:14.791Z,2.87
2022-10-06T11:21:47.614Z,3.03
2022-10-06T11:24:19.254Z,4.20
2022-10-06T11:27:01.083Z,7.30
2022-10-06T11:29:36.738Z,3.83
2022-10-06T11:32:13.423Z,5.20
2022-10-06T11:34:43.121Z,2.83
2022-10-06T11:37:20.195Z,3.80
2022-10-06T11:39:52.621Z,4.57
2022-10-06T11:42:24.965Z,6.10
2022-10-06T11:44:58.703Z,9.00
2022-10-06T11:47:35.606Z,5.67
2022-10-06T11:50:33.202Z,9.53
2022-10-06T11:53:01.502Z,5.37
2022-10-06T11:55:30.148Z,9.77
2022-10-06T12:01:48.521Z,3.40
2022-10-06T12:04:20.745Z,5.57
2022-10-06T12:07:06.366Z,4.23
2022-10-06T12:09:52.968Z,3.73
2022-10-06T12:13:06.877Z,4.97
2022-10-06T12:17:05.496Z,7.43
2022-10-06T12:19:01.074Z,5.10
2022-10-06T12:21:38.474Z,3.30
2022-10-06T12:24:22.693Z,5.50
2022-10-06T12:26:56.232Z,3.63
2022-10-06T12:29:47.218Z,4.50
2022-10-06T12:32:22.247Z,2.63
2022-10-06T12:35:03.887Z,18.20
2022-10-06T12:37:39.047Z,7.07
2022-10-06T12:40:54.613Z,3.30
2022-10-06T12:44:03.709Z,4.50
2022-10-06T12:46:39.245Z,5.20
2022-10-06T12:49:32.025Z,5.83
2022-10-06T12:52:10.376Z,4.37
2022-10-06T12:54:44.798Z,7.47
2022-10-06T12:57:18.733Z,9.50
2022-10-06T12:59:49.169Z,7.73
2022-10-06T13:02:19.849Z,4.33
2022-10-06T13:04:53.012Z,3.03
2022-10-06T13:07:22.399Z,3.97
2022-10-06T13:09:52.482Z,5.57
2022-10-06T13:12:31.663Z,8.20
2022-10-06T13:15:23.988Z,6.23
2022-10-06T13:17:55.044Z,3.67
2022-10-06T13:20:31.268Z,3.93
2022-10-06T13:23:00.430Z,4.83
2022-10-06T13:25:36.144Z,5.33
2022-10-06T13:28:05.031Z,2.70
2022-10-06T13:30:38.523Z,8.20
2022-10-06T13:33:08.692Z,2.80
2022-10-06T13:35:36.732Z,3.07
2022-10-06T13:38:06.369Z,6.40
2022-10-06T13:40:50.390Z,11.50
2022-10-06T13:43:20.257Z,4.10
2022-10-06T13:45:50.037Z,3.40
2022-10-06T13:48:20.254Z,4.83
2022-10-06T13:50:49.708Z,3.17
2022-10-06T13:53:30.239Z,4.23
2022-10-06T13:55:59.308Z,13.20
2022-10-06T13:58:48.392Z,4.77
2022-10-06T14:01:29.179Z,7.87
2022-10-06T14:04:13.633Z,13.77
2022-10-06T14:06:49.170Z,4.10
2022-10-06T14:09:22.526Z,5.23
2022-10-06T14:11:50.974Z,8.83
2022-10-06T14:14:19.722Z,9.23
2022-10-06T14:16:54.046Z,6.97
2022-10-06T14:19:36.681Z,3.40
2022-10-06T14:22:05.737Z,4.80
2022-10-06T14:24:37.392Z,7.73
2022-10-06T14:27:07.475Z,8.20
2022-10-06T14:29:38.043Z,6.80
2022-10-06T14:32:14.092Z,4.57
2022-10-06T14:34:42.471Z,4.20
2022-10-06T14:37:22.372Z,7.47
2022-10-06T14:39:52.023Z,8.90
2022-10-06T14:42:22.493Z,6.60
2022-10-06T14:44:50.616Z,5.70
2022-10-06T14:47:20.046Z,4.30
2022-10-06T14:49:48.495Z,6.03
2022-10-06T14:52:16.649Z,4.43
2022-10-06T14:54:44.673Z,7.53
2022-10-06T14:57:13.554Z,9.20
2022-10-06T14:59:41.567Z,4.43
2022-10-06T15:02:11.013Z,5.40
2022-10-06T15:04:40.670Z,3.00
2022-10-06T15:07:26.039Z,5.60
2022-10-06T15:09:54.198Z,5.40
2022-10-06T15:12:22.267Z,3.93
2022-10-06T15:14:50.280Z,8.67
2022-10-06T15:17:18.345Z,3.70
2022-10-06T15:19:47.795Z,3.67
2022-10-06T15:22:15.851Z,4.93
2022-10-06T15:24:48.846Z,3.63
2022-10-06T15:27:34.256Z,5.00
2022-10-06T15:30:02.458Z,4.67
2022-10-06T15:32:30.498Z,3.57
2022-10-06T15:35:00.633Z,2.90
2022-10-06T15:37:28.793Z,5.63
2022-10-06T15:39:57.633Z,5.27
2022-10-06T15:42:25.780Z,4.20
2022-10-06T15:44:54.102Z,6.10
2022-10-06T15:47:23.850Z,4.07
2022-10-06T15:49:52.022Z,6.93
2022-10-06T15:52:21.578Z,7.10
2022-10-06T15:54:50.054Z,4.30
2022-10-06T15:57:21.268Z,7.60
2022-10-06T15:59:49.688Z,3.63
2022-10-06T16:02:18.661Z,8.80
2022-10-06T16:04:57.350Z,7.57
2022-10-06T16:07:28.686Z,5.03
2022-10-06T16:09:56.859Z,8.53
2022-10-06T16:12:28.584Z,6.03
2022-10-06T16:14:56.667Z,15.40
2022-10-06T16:17:24.759Z,8.23
2022-10-06T16:19:53.014Z,8.20
2022-10-06T16:22:21.912Z,4.30
2022-10-06T16:24:51.377Z,4.50
2022-10-06T16:27:19.658Z,5.93
2022-10-06T16:29:47.855Z,4.50
2022-10-06T16:32:17.273Z,7.27
2022-10-06T16:34:50.327Z,4.10
2022-10-06T16:37:18.460Z,3.33
2022-10-06T16:39:46.525Z,18.17
2022-10-06T16:42:16.725Z,7.17
2022-10-06T16:44:44.820Z,5.43
2022-10-06T16:47:12.832Z,6.50
2022-10-06T16:49:40.809Z,3.57
2022-10-06T16:52:08.828Z,4.83
2022-10-06T16:54:36.893Z,12.83
2022-10-06T16:57:06.786Z,6.33
2022-10-06T16:59:36.257Z,3.33
2022-10-06T17:02:04.299Z,5.13
2022-10-06T17:04:32.357Z,4.00
2022-10-06T17:07:01.571Z,6.87
2022-10-06T17:09:30.498Z,5.20
2022-10-06T17:12:00.118Z,8.30
2022-10-06T17:14:30.329Z,7.70
2022-10-06T17:17:00.677Z,13.77
2022-10-06T17:19:30.377Z,4.67
2022-10-06T17:22:00.029Z,8.90
2022-10-06T17:24:31.273Z,5.80
2022-10-06T17:27:00.433Z,7.50
2022-10-06T17:29:28.578Z,9.13
2022-10-06T17:31:59.295Z,6.47
2022-10-06T17:34:32.815Z,6.70
2022-10-06T17:37:02.076Z,4.80
2022-10-06T17:39:30.399Z,4.60
2022-10-06T17:41:58.435Z,5.30
2022-10-06T17:44:28.559Z,6.00
2022-10-06T17:46:58.068Z,10.83
2022-10-06T17:49:26.840Z,15.00
2022-10-06T17:51:56.554Z,26.13
2022-10-06T17:54:26.829Z,5.87
2022-10-06T17:56:56.997Z,11.80
2022-10-06T17:59:28.620Z,9.90
2022-10-06T18:01:58.526Z,5.50
2022-10-06T18:04:27.223Z,7.43
2022-10-06T18:06:57.163Z,4.87
2022-10-06T18:09:25.466Z,6.37
2022-10-06T18:11:56.332Z,13.80
2022-10-06T18:14:26.555Z,4.60
2022-10-06T18:16:56.661Z,7.20
2022-10-06T18:19:26.822Z,6.30
2022-10-06T18:21:58.153Z,9.03
2022-10-06T18:24:27.459Z,13.57
2022-10-06T18:26:57.241Z,7.33
2022-10-06T18:29:30.131Z,9.00
2022-10-06T18:32:15.189Z,10.63
2022-10-06T18:36:12.872Z,8.37
2022-10-06T18:37:36.031Z,11.13
2022-10-06T18:40:06.932Z,9.73
2022-10-06T18:42:35.981Z,9.97
2022-10-06T18:45:21.881Z,6.00
2022-10-06T18:48:07.794Z,17.10
2022-10-06T18:50:36.111Z,7.03
2022-10-06T18:53:07.270Z,11.23
2022-10-06T18:55:35.461Z,10.53
2022-10-06T18:58:04.561Z,8.03
2022-10-06T19:00:33.477Z,7.37
2022-10-06T19:03:01.536Z,9.47
2022-10-06T19:05:30.990Z,6.30
2022-10-06T19:07:59.045Z,6.50
2022-10-06T19:10:29.899Z,9.17
2022-10-06T19:12:58.274Z,13.80
2022-10-06T19:15:26.433Z,8.37
2022-10-06T19:17:54.641Z,6.03
2022-10-06T19:20:23.345Z,6.17
2022-10-06T19:22:51.594Z,8.43
2022-10-06T19:25:19.685Z,6.23
2022-10-06T19:27:51.009Z,6.80
2022-10-06T19:30:19.150Z,10.73
2022-10-06T19:32:47.261Z,5.97
2022-10-06T19:35:16.221Z,7.13
2022-10-06T19:37:44.396Z,7.40
2022-10-06T19:40:12.884Z,10.33
2022-10-06T19:42:48.727Z,12.03
2022-10-06T19:45:21.051Z,8.73
2022-10-06T19:47:49.258Z,11.80
2022-10-06T19:50:17.994Z,11.63
2022-10-06T19:52:46.463Z,8.43
2022-10-06T19:55:14.774Z,9.07
2022-10-06T19:57:43.607Z,8.63
2022-10-06T20:00:13.054Z,21.30
2022-10-06T20:02:43.770Z,9.40
2022-10-06T20:05:13.401Z,8.60
2022-10-06T20:07:41.926Z,9.77
2022-10-06T20:10:11.839Z,10.33
2022-10-06T20:12:42.251Z,7.60
2022-10-06T20:15:11.138Z,14.10
2022-10-06T20:17:45.526Z,10.10
2022-10-06T20:20:14.379Z,13.97
2022-10-06T20:22:42.432Z,5.93
2022-10-06T20:25:11.053Z,16.93
2022-10-06T20:27:39.099Z,9.47
2022-10-06T20:30:08.439Z,11.30
2022-10-06T20:32:36.415Z,9.33
2022-10-06T20:35:06.268Z,10.20
2022-10-06T20:37:34.251Z,10.57
2022-10-06T20:40:19.901Z,17.67
2022-10-06T20:42:49.535Z,9.80
2022-10-06T20:45:18.231Z,8.77
2022-10-06T20:47:48.031Z,11.43
2022-10-06T20:50:18.607Z,17.57
2022-10-06T20:52:47.079Z,16.80
2022-10-06T20:55:15.468Z,7.30
2022-10-06T20:57:43.960Z,7.13
2022-10-06T21:00:16.622Z,14.20
2022-10-06T21:02:44.630Z,12.67
2022-10-06T21:05:12.756Z,10.20
2022-10-06T21:07:42.655Z,12.40
2022-10-06T21:10:11.028Z,10.53
2022-10-06T21:12:47.050Z,8.00
2022-10-06T21:15:15.063Z,10.47
2022-10-06T21:17:44.103Z,10.03
2022-10-06T21:20:12.337Z,15.73
2022-10-06T21:22:40.442Z,16.23
2022-10-06T21:25:10.577Z,11.20
2022-10-06T21:27:38.611Z,12.57
2022-10-06T21:30:09.288Z,11.53
2022-10-06T21:32:38.202Z,14.67
2022-10-06T21:35:09.682Z,11.27
2022-10-06T21:37:37.713Z,11.47
2022-10-06T21:40:06.525Z,7.20
2022-10-06T21:42:35.914Z,12.50
2022-10-06T21:45:04.029Z,9.87
2022-10-06T21:47:34.840Z,10.13
2022-10-06T21:50:03.406Z,12.47
2022-10-06T21:52:31.444Z,14.33
2022-10-06T21:54:59.470Z,10.70
2022-10-06T21:57:27.442Z,18.27
2022-10-06T21:59:56.848Z,12.20
2022-10-06T22:02:24.921Z,10.60
2022-10-06T22:04:53.141Z,19.37
2022-10-06T22:07:21.143Z,15.30
2022-10-06T22:09:49.353Z,12.07
2022-10-06T22:12:19.518Z,14.73
2022-10-06T22:14:47.520Z,12.37
2022-10-06T22:17:16.870Z,11.90
2022-10-06T22:19:44.897Z,11.70
2022-10-06T22:22:12.962Z,13.53
2022-10-06T22:24:40.945Z,10.23
2022-10-06T22:27:08.913Z,16.17
2022-10-06T22:29:36.963Z,11.00
2022-10-06T22:32:04.957Z,9.63
2022-10-06T22:34:34.356Z,11.33
2022-10-06T22:37:02.616Z,11.87
2022-10-06T22:39:30.964Z,13.20
2022-10-06T22:41:59.189Z,11.80
2022-10-06T22:44:27.225Z,16.40
2022-10-06T22:46:55.248Z,14.73
2022-10-06T22:49:23.278Z,16.03
2022-10-06T22:51:52.713Z,10.90
2022-10-06T22:54:22.270Z,9.87
2022-10-06T22:56:50.864Z,19.27
2022-10-06T22:59:19.088Z,10.87
2022-10-06T23:01:47.142Z,11.73
2022-10-06T23:04:15.237Z,11.43
2022-10-06T23:06:43.237Z,10.30
2022-10-06T23:09:13.004Z,10.77
2022-10-06T23:11:41.018Z,13.13
2022-10-06T23:14:09.122Z,12.97
2022-10-06T23:16:37.192Z,13.37
2022-10-06T23:19:05.212Z,22.30
2022-10-06T23:21:33.249Z,14.30
2022-10-06T23:24:01.635Z,11.27
2022-10-06T23:26:33.233Z,13.73
2022-10-06T23:29:02.162Z,12.80
2022-10-06T23:31:30.761Z,17.27
2022-10-06T23:34:01.207Z,22.30
2022-10-06T23:36:29.864Z,12.10
2022-10-06T23:38:57.993Z,12.50
2022-10-06T23:41:26.212Z,15.93
2022-10-06T23:43:55.611Z,13.60
2022-10-06T23:46:23.834Z,17.43
2022-10-06T23:48:51.868Z,15.63
2022-10-06T23:51:19.982Z,13.33
2022-10-06T23:53:48.344Z,11.73
2022-10-06T23:56:16.488Z,18.83
2022-10-06T23:58:44.852Z,12.70
